Time;durP1;ratioP1;P1;durP2;ratioP2;P2;SDS_P1;SDS_P2;PMS_P1;PMS_P2;Temp;Humidity;BMP_temperature;BMP_pressure;BME280_temperature;BME280_humidity;BME280_pressure;Samples;Min_cycle;Max_cycle;Signal;HPM_P1;HPM_P2
2022/10/02 00:01:55;;;;;;;;;;;26.90;92.50;;;;;;5056824;28;19905;-44
2022/10/02 00:04:44;;;;;;;;;;;26.90;92.70;;;;;;5041528;28;19951;-46
2022/10/02 00:07:11;;;;;;;;;;;26.90;92.70;;;;;;5055293;28;19905;-45
2022/10/02 00:09:49;;;;;;;;;;;26.90;92.80;;;;;;5041224;28;19918;-50
2022/10/02 00:12:16;;;;;;;;;;;26.90;92.70;;;;;;5042932;28;20211;-43
2022/10/02 00:14:44;;;;;;;;;;;26.90;92.90;;;;;;5042003;28;20122;-46
2022/10/02 00:17:32;;;;;;;;;;;26.90;92.90;;;;;;5041682;28;19905;-40
2022/10/02 00:19:58;;;;;;;;;;;26.90;93.00;;;;;;5035922;28;19955;-49
2022/10/02 00:22:41;;;;;;;;;;;26.90;93.10;;;;;;5042558;28;24066;-43
2022/10/02 00:25:15;;;;;;;;;;;26.90;93.20;;;;;;5041308;28;19976;-43
2022/10/02 00:27:43;;;;;;;;;;;26.90;93.20;;;;;;5042356;28;20001;-43
2022/10/02 00:30:14;;;;;;;;;;;26.80;93.40;;;;;;5043012;28;19909;-43
2022/10/02 00:32:43;;;;;;;;;;;26.80;93.40;;;;;;5041506;28;19928;-45
2022/10/02 00:35:18;;;;;;;;;;;26.70;93.80;;;;;;5041537;28;19946;-46
2022/10/02 00:37:51;;;;;;;;;;;26.70;93.80;;;;;;5040408;28;24084;-42
2022/10/02 00:40:29;;;;;;;;;;;26.60;93.90;;;;;;5042150;28;24081;-41
2022/10/02 00:43:05;;;;;;;;;;;26.60;94.10;;;;;;5042545;28;19912;-44
2022/10/02 00:45:49;;;;;;;;;;;26.60;94.10;;;;;;5042319;28;24083;-42
2022/10/02 00:48:30;;;;;;;;;;;26.60;94.20;;;;;;5041166;28;20244;-49
2022/10/02 00:51:09;;;;;;;;;;;26.50;94.20;;;;;;5041701;28;19931;-44
2022/10/02 00:53:39;;;;;;;;;;;26.50;94.30;;;;;;5042301;28;19972;-48
2022/10/02 00:56:08;;;;;;;;;;;26.40;94.30;;;;;;5040503;28;19909;-49
2022/10/02 00:58:34;;;;;;;;;;;26.40;94.40;;;;;;5041094;28;20218;-47
2022/10/02 01:01:12;;;;;;;;;;;26.40;94.50;;;;;;5042182;28;19913;-44
2022/10/02 01:03:52;;;;;;;;;;;26.40;94.40;;;;;;5040469;28;19905;-50
2022/10/02 01:06:19;;;;;;;;;;;26.40;94.40;;;;;;5041663;28;19909;-48
2022/10/02 01:08:45;;;;;;;;;;;26.40;94.30;;;;;;5041707;28;20180;-42
2022/10/02 01:11:12;;;;;;;;;;;26.40;94.20;;;;;;5041983;28;24085;-45
2022/10/02 01:13:38;;;;;;;;;;;26.40;94.20;;;;;;5041882;28;19947;-46
2022/10/02 01:16:10;;;;;;;;;;;26.40;94.10;;;;;;5041664;28;20193;-44
2022/10/02 01:18:36;;;;;;;;;;;26.40;94.10;;;;;;5040621;28;24060;-45
2022/10/02 01:21:25;;;;;;;;;;;26.40;94.20;;;;;;5041716;28;19962;-46
2022/10/02 01:23:54;;;;;;;;;;;26.50;94.10;;;;;;5038651;28;24088;-50
2022/10/02 01:26:21;;;;;;;;;;;26.40;94.10;;;;;;5041439;28;19909;-46
2022/10/02 01:28:48;;;;;;;;;;;26.50;94.10;;;;;;5041533;28;19916;-46
2022/10/02 01:31:17;;;;;;;;;;;26.50;94.10;;;;;;5041695;28;19905;-46
2022/10/02 01:33:43;;;;;;;;;;;26.50;94.00;;;;;;5041369;28;19912;-44
2022/10/02 01:36:10;;;;;;;;;;;26.50;93.90;;;;;;5041558;28;19962;-41
2022/10/02 01:38:38;;;;;;;;;;;26.50;93.80;;;;;;5040712;28;24102;-46
2022/10/02 01:41:07;;;;;;;;;;;26.60;93.90;;;;;;5040170;28;19905;-46
2022/10/02 01:43:38;;;;;;;;;;;26.60;93.90;;;;;;5041056;28;19912;-45
2022/10/02 01:46:14;;;;;;;;;;;26.60;93.70;;;;;;5041661;28;20194;-42
2022/10/02 01:48:40;;;;;;;;;;;26.60;93.70;;;;;;5040716;28;24081;-43
2022/10/02 01:51:25;;;;;;;;;;;26.60;93.80;;;;;;5041430;28;19976;-41
2022/10/02 01:54:02;;;;;;;;;;;26.60;93.70;;;;;;5041286;28;19949;-43
2022/10/02 01:56:35;;;;;;;;;;;26.60;93.70;;;;;;5041213;28;24080;-46
2022/10/02 01:59:24;;;;;;;;;;;26.60;93.70;;;;;;5041192;28;20113;-45
2022/10/02 02:02:04;;;;;;;;;;;26.60;93.80;;;;;;5041147;28;19905;-42
2022/10/02 02:04:41;;;;;;;;;;;26.60;93.70;;;;;;5040828;28;20197;-42
2022/10/02 02:07:07;;;;;;;;;;;26.60;93.70;;;;;;5041396;28;19912;-43
2022/10/02 02:09:53;;;;;;;;;;;26.60;93.70;;;;;;5039763;28;25103;-42
2022/10/02 02:12:43;;;;;;;;;;;26.60;93.80;;;;;;5039957;28;19905;-44
2022/10/02 02:15:15;;;;;;;;;;;26.60;93.80;;;;;;5038225;28;24107;-43
2022/10/02 02:17:44;;;;;;;;;;;26.70;93.90;;;;;;5041325;28;20073;-45
2022/10/02 02:20:17;;;;;;;;;;;26.60;93.90;;;;;;5041388;28;19909;-47
2022/10/02 02:22:44;;;;;;;;;;;26.60;93.90;;;;;;5041007;28;24099;-42
2022/10/02 02:25:21;;;;;;;;;;;26.60;93.90;;;;;;5040798;28;19935;-43
2022/10/02 02:27:50;;;;;;;;;;;26.60;93.90;;;;;;5041077;28;24094;-44
2022/10/02 02:30:16;;;;;;;;;;;26.60;93.90;;;;;;5041252;28;19909;-43
2022/10/02 02:32:46;;;;;;;;;;;26.60;93.90;;;;;;5041184;28;19905;-44
2022/10/02 02:35:16;;;;;;;;;;;26.60;93.90;;;;;;5041037;28;19917;-47
2022/10/02 02:37:44;;;;;;;;;;;26.60;93.90;;;;;;5041027;28;24080;-44
2022/10/02 02:40:15;;;;;;;;;;;26.60;93.90;;;;;;5041331;28;20222;-44
2022/10/02 02:42:42;;;;;;;;;;;26.60;94.00;;;;;;5040746;28;19912;-45
2022/10/02 02:45:08;;;;;;;;;;;26.60;94.00;;;;;;5040833;28;19909;-47
2022/10/02 02:47:40;;;;;;;;;;;26.50;93.90;;;;;;5040589;28;20215;-45
2022/10/02 02:50:16;;;;;;;;;;;26.50;94.00;;;;;;5040950;28;19909;-42
2022/10/02 02:52:45;;;;;;;;;;;26.50;94.10;;;;;;5040546;28;19912;-49
2022/10/02 02:55:19;;;;;;;;;;;26.50;94.10;;;;;;5041073;28;19988;-47
2022/10/02 02:57:45;;;;;;;;;;;26.50;94.10;;;;;;5040721;28;24073;-45
2022/10/02 03:00:13;;;;;;;;;;;26.50;94.10;;;;;;5040648;28;24086;-50
2022/10/02 03:02:39;;;;;;;;;;;26.50;93.90;;;;;;5043294;28;25129;-51
2022/10/02 03:05:12;;;;;;;;;;;26.60;94.00;;;;;;5044006;28;24082;-46
2022/10/02 03:07:39;;;;;;;;;;;26.50;94.00;;;;;;5043808;28;20212;-45
2022/10/02 03:10:11;;;;;;;;;;;26.50;94.00;;;;;;5044050;28;24121;-45
2022/10/02 03:12:37;;;;;;;;;;;26.50;94.00;;;;;;5043868;28;19964;-46
2022/10/02 03:15:17;;;;;;;;;;;26.60;94.00;;;;;;5043759;28;24104;-47
2022/10/02 03:17:43;;;;;;;;;;;26.50;94.00;;;;;;5043804;28;19901;-42
2022/10/02 03:20:13;;;;;;;;;;;26.60;94.10;;;;;;5043872;28;19950;-42
2022/10/02 03:22:42;;;;;;;;;;;26.50;94.10;;;;;;5043373;28;19901;-42
2022/10/02 03:25:20;;;;;;;;;;;26.50;94.10;;;;;;5043277;28;24100;-41
2022/10/02 03:28:02;;;;;;;;;;;26.50;94.20;;;;;;5043483;28;19974;-45
2022/10/02 03:30:29;;;;;;;;;;;26.50;94.20;;;;;;5043885;28;19909;-44
2022/10/02 03:32:59;;;;;;;;;;;26.50;94.20;;;;;;5043789;28;20118;-44
2022/10/02 03:35:26;;;;;;;;;;;26.50;94.20;;;;;;5043882;28;20177;-44
2022/10/02 03:37:55;;;;;;;;;;;26.50;94.20;;;;;;5043416;28;19909;-42
2022/10/02 03:40:25;;;;;;;;;;;26.50;94.20;;;;;;5043595;28;24105;-41
2022/10/02 03:42:51;;;;;;;;;;;26.50;94.20;;;;;;5043323;28;24072;-44
2022/10/02 03:45:18;;;;;;;;;;;26.50;94.30;;;;;;5043606;28;20066;-47
2022/10/02 03:47:44;;;;;;;;;;;26.50;94.20;;;;;;5043467;28;19941;-46
2022/10/02 03:50:13;;;;;;;;;;;26.50;94.20;;;;;;5042442;28;19955;-44
2022/10/02 03:52:40;;;;;;;;;;;26.50;94.20;;;;;;5042006;28;24114;-45
2022/10/02 03:55:18;;;;;;;;;;;26.50;94.20;;;;;;5043346;28;24075;-42
2022/10/02 03:57:45;;;;;;;;;;;26.50;94.20;;;;;;5043401;28;20188;-45
2022/10/02 04:00:16;;;;;;;;;;;26.50;94.30;;;;;;5043232;28;24059;-49
2022/10/02 04:02:46;;;;;;;;;;;26.50;94.40;;;;;;5043154;28;19911;-43
2022/10/02 04:05:41;;;;;;;;;;;26.50;94.40;;;;;;5043303;28;24084;-42
2022/10/02 04:08:27;;;;;;;;;;;26.50;94.40;;;;;;5038236;28;19905;-44
2022/10/02 04:11:02;;;;;;;;;;;26.50;94.40;;;;;;5042969;28;19920;-45
2022/10/02 04:13:31;;;;;;;;;;;26.50;94.40;;;;;;5042687;28;24073;-44
2022/10/02 04:16:20;;;;;;;;;;;26.50;94.40;;;;;;5042919;28;19913;-42
2022/10/02 04:19:04;;;;;;;;;;;26.40;94.40;;;;;;5032065;28;20119;-42
2022/10/02 04:21:41;;;;;;;;;;;26.40;94.40;;;;;;5042689;28;19912;-44
2022/10/02 04:24:11;;;;;;;;;;;26.50;94.40;;;;;;5042617;28;19966;-49
2022/10/02 04:26:41;;;;;;;;;;;26.40;94.40;;;;;;5042159;28;25074;-42
2022/10/02 04:29:17;;;;;;;;;;;26.40;94.40;;;;;;5042469;28;19915;-44
2022/10/02 04:31:48;;;;;;;;;;;26.50;94.50;;;;;;5042852;28;20003;-45
2022/10/02 04:34:14;;;;;;;;;;;26.50;94.50;;;;;;5042362;28;25086;-44
2022/10/02 04:36:59;;;;;;;;;;;26.50;94.50;;;;;;5042771;28;20093;-48
2022/10/02 04:39:36;;;;;;;;;;;26.40;94.40;;;;;;5042706;28;24070;-48
2022/10/02 04:42:18;;;;;;;;;;;26.40;94.50;;;;;;5042482;28;24091;-47
2022/10/02 04:44:52;;;;;;;;;;;26.40;94.40;;;;;;5042683;28;25058;-45
2022/10/02 04:47:21;;;;;;;;;;;26.40;94.40;;;;;;5042515;28;24084;-44
2022/10/02 04:50:07;;;;;;;;;;;26.40;94.50;;;;;;5042514;28;24082;-43
2022/10/02 04:52:51;;;;;;;;;;;26.40;94.50;;;;;;5041973;28;24082;-46
2022/10/02 04:55:32;;;;;;;;;;;26.40;94.40;;;;;;5042501;28;20018;-49
2022/10/02 04:58:24;;;;;;;;;;;26.40;94.50;;;;;;5042133;28;20100;-46
2022/10/02 05:01:00;;;;;;;;;;;26.40;94.50;;;;;;5033472;28;20222;-46
2022/10/02 05:03:29;;;;;;;;;;;26.40;94.50;;;;;;5041912;28;24076;-44
2022/10/02 05:05:55;;;;;;;;;;;26.30;94.40;;;;;;5042459;28;19920;-46
2022/10/02 05:08:30;;;;;;;;;;;26.40;94.40;;;;;;5041835;28;20193;-45
2022/10/02 05:11:08;;;;;;;;;;;26.40;94.50;;;;;;5042530;28;19951;-43
2022/10/02 05:13:48;;;;;;;;;;;26.30;94.40;;;;;;5041828;28;19913;-42
2022/10/02 05:16:14;;;;;;;;;;;26.30;94.50;;;;;;5041723;28;19909;-43
2022/10/02 05:18:57;;;;;;;;;;;26.30;94.50;;;;;;5041954;28;24073;-46
2022/10/02 05:21:29;;;;;;;;;;;26.30;94.50;;;;;;5041717;28;24077;-41
2022/10/02 05:24:10;;;;;;;;;;;26.30;94.60;;;;;;5041290;28;19996;-43
2022/10/02 05:26:48;;;;;;;;;;;26.30;94.60;;;;;;5041527;28;19915;-51
2022/10/02 05:29:14;;;;;;;;;;;26.30;94.80;;;;;;5041932;28;19912;-45
2022/10/02 05:31:44;;;;;;;;;;;26.30;94.60;;;;;;5041608;28;20215;-43
2022/10/02 05:34:16;;;;;;;;;;;26.30;94.60;;;;;;5041545;28;25075;-45
2022/10/02 05:36:46;;;;;;;;;;;26.30;94.60;;;;;;5041684;28;19905;-47
2022/10/02 05:39:41;;;;;;;;;;;26.30;94.50;;;;;;5041472;28;20260;-45
2022/10/02 05:42:10;;;;;;;;;;;26.30;94.60;;;;;;5036931;28;19946;-42
2022/10/02 05:44:38;;;;;;;;;;;26.30;94.50;;;;;;5041817;28;19917;-43
2022/10/02 05:47:13;;;;;;;;;;;26.30;94.50;;;;;;5041402;28;19932;-43
2022/10/02 05:49:40;;;;;;;;;;;26.30;94.50;;;;;;5041588;28;19909;-47
2022/10/02 05:52:06;;;;;;;;;;;26.30;94.50;;;;;;5041375;28;25133;-45
2022/10/02 05:54:41;;;;;;;;;;;26.30;94.50;;;;;;5041554;28;19913;-44
2022/10/02 05:57:10;;;;;;;;;;;26.30;94.50;;;;;;5040901;28;19912;-43
2022/10/02 05:59:36;;;;;;;;;;;26.30;94.50;;;;;;5041575;28;24081;-43
2022/10/02 06:02:07;;;;;;;;;;;26.30;94.50;;;;;;5041029;28;25113;-41
2022/10/02 06:04:36;;;;;;;;;;;26.30;94.50;;;;;;5041562;28;19940;-41
2022/10/02 06:07:11;;;;;;;;;;;26.30;94.50;;;;;;5040898;28;25120;-40
2022/10/02 06:09:43;;;;;;;;;;;26.30;94.50;;;;;;5041312;28;19909;-41
2022/10/02 06:12:12;;;;;;;;;;;26.30;94.60;;;;;;5041501;28;19919;-44
2022/10/02 06:14:45;;;;;;;;;;;26.20;94.50;;;;;;5041253;28;25082;-42
2022/10/02 06:17:31;;;;;;;;;;;26.30;94.60;;;;;;5041254;28;19905;-42
2022/10/02 06:20:04;;;;;;;;;;;26.20;94.50;;;;;;5040943;28;19936;-48
2022/10/02 06:22:45;;;;;;;;;;;26.20;94.60;;;;;;5041119;28;19945;-41
2022/10/02 06:25:29;;;;;;;;;;;26.20;94.60;;;;;;5040956;28;19941;-44
2022/10/02 06:27:58;;;;;;;;;;;26.20;94.60;;;;;;5041076;28;20004;-47
2022/10/02 06:30:25;;;;;;;;;;;26.20;94.70;;;;;;5041324;28;19909;-41
2022/10/02 06:32:51;;;;;;;;;;;26.20;94.60;;;;;;5040811;28;19934;-39
2022/10/02 06:35:20;;;;;;;;;;;26.20;94.50;;;;;;5041370;28;19920;-40
2022/10/02 06:38:05;;;;;;;;;;;26.20;94.60;;;;;;5044243;28;19968;-46
2022/10/02 06:40:31;;;;;;;;;;;26.20;94.60;;;;;;5043561;28;19988;-42
2022/10/02 06:42:57;;;;;;;;;;;26.20;94.60;;;;;;5044449;28;20185;-42
2022/10/02 06:45:38;;;;;;;;;;;26.20;94.60;;;;;;5044259;28;24085;-40
2022/10/02 06:48:09;;;;;;;;;;;26.10;94.60;;;;;;5044608;28;19905;-49
2022/10/02 06:50:43;;;;;;;;;;;26.10;94.60;;;;;;5041739;28;24078;-43
2022/10/02 06:53:19;;;;;;;;;;;26.10;94.60;;;;;;5037829;28;25097;-41
2022/10/02 06:55:51;;;;;;;;;;;26.10;94.60;;;;;;5024235;28;19914;-47
2022/10/02 06:58:23;;;;;;;;;;;26.10;94.50;;;;;;5025135;28;20240;-45
2022/10/02 07:00:52;;;;;;;;;;;26.10;94.50;;;;;;5024787;28;19916;-41
2022/10/02 07:03:21;;;;;;;;;;;26.10;94.50;;;;;;5024185;28;19905;-41
2022/10/02 07:05:47;;;;;;;;;;;26.10;94.50;;;;;;5030084;27;25097;-40
2022/10/02 07:08:19;;;;;;;;;;;26.10;94.50;;;;;;5055220;27;19905;-40
2022/10/02 07:10:48;;;;;;;;;;;26.10;94.50;;;;;;5033351;28;19916;-41
2022/10/02 07:13:21;;;;;;;;;;;26.10;94.60;;;;;;5044057;28;19909;-41
2022/10/02 07:15:50;;;;;;;;;;;26.10;94.60;;;;;;5037758;28;19913;-42
2022/10/02 07:18:25;;;;;;;;;;;26.10;94.60;;;;;;5028907;28;24115;-42
2022/10/02 07:21:27;;;;;;;;;;;26.10;94.60;;;;;;5024427;28;19910;-41
2022/10/02 07:24:00;;;;;;;;;;;26.10;94.60;;;;;;5065215;28;19904;-44
2022/10/02 07:26:26;;;;;;;;;;;26.10;94.60;;;;;;5029332;28;25076;-42
2022/10/02 07:28:56;;;;;;;;;;;26.10;94.60;;;;;;5023720;28;20208;-44
2022/10/02 07:31:45;;;;;;;;;;;26.10;94.60;;;;;;5035619;28;19905;-44
2022/10/02 07:34:29;;;;;;;;;;;26.10;94.60;;;;;;5043632;28;24109;-44
2022/10/02 07:37:09;;;;;;;;;;;26.00;94.60;;;;;;5043324;28;24107;-45
2022/10/02 07:39:38;;;;;;;;;;;26.00;94.80;;;;;;5043729;28;19916;-43
2022/10/02 07:42:13;;;;;;;;;;;26.00;94.80;;;;;;5043430;28;20129;-43
2022/10/02 07:44:51;;;;;;;;;;;26.00;94.80;;;;;;5043639;28;19913;-42
2022/10/02 07:47:29;;;;;;;;;;;26.00;94.80;;;;;;5042992;28;19948;-45
2022/10/02 07:50:02;;;;;;;;;;;26.00;94.80;;;;;;5043390;28;24085;-47
2022/10/02 07:52:37;;;;;;;;;;;26.00;94.80;;;;;;5043272;28;24374;-42
2022/10/02 07:55:03;;;;;;;;;;;26.00;94.80;;;;;;5043450;28;24116;-42
2022/10/02 07:57:35;;;;;;;;;;;26.00;94.70;;;;;;5043088;28;19942;-43
2022/10/02 08:00:22;;;;;;;;;;;26.00;94.70;;;;;;5043539;28;19909;-42
2022/10/02 08:02:57;;;;;;;;;;;26.00;94.70;;;;;;5043151;28;19950;-47
2022/10/02 08:05:32;;;;;;;;;;;26.00;94.70;;;;;;5043227;28;24073;-43
2022/10/02 08:08:08;;;;;;;;;;;26.00;94.70;;;;;;5043044;28;20215;-40
2022/10/02 08:10:41;;;;;;;;;;;26.10;94.70;;;;;;5043365;28;20085;-42
2022/10/02 08:13:11;;;;;;;;;;;26.10;94.80;;;;;;5043050;28;20208;-43
2022/10/02 08:15:38;;;;;;;;;;;26.00;94.80;;;;;;5043206;28;19913;-40
2022/10/02 08:18:13;;;;;;;;;;;26.00;94.80;;;;;;5042494;28;19947;-45
2022/10/02 08:20:42;;;;;;;;;;;26.00;94.80;;;;;;5043372;28;19909;-40
2022/10/02 08:23:27;;;;;;;;;;;26.00;94.80;;;;;;5042855;28;19905;-46
2022/10/02 08:26:05;;;;;;;;;;;26.00;94.80;;;;;;5042622;28;19913;-44
2022/10/02 08:28:39;;;;;;;;;;;26.00;94.80;;;;;;5042611;28;19905;-45
2022/10/02 08:31:14;;;;;;;;;;;26.00;94.80;;;;;;5042781;28;19909;-44
2022/10/02 08:33:42;;;;;;;;;;;26.00;94.80;;;;;;5042452;28;24075;-44
2022/10/02 08:36:08;;;;;;;;;;;26.00;94.80;;;;;;5042595;28;19914;-43
2022/10/02 08:38:45;;;;;;;;;;;26.00;94.80;;;;;;5042649;28;19905;-42
2022/10/02 08:41:29;;;;;;;;;;;26.00;94.80;;;;;;5042471;28;19909;-45
2022/10/02 08:44:14;;;;;;;;;;;26.00;94.70;;;;;;5042806;28;20165;-47
2022/10/02 08:46:55;;;;;;;;;;;26.00;94.70;;;;;;5042410;28;19917;-42
2022/10/02 08:49:21;;;;;;;;;;;25.90;94.70;;;;;;5042573;28;19940;-42
2022/10/02 08:52:05;;;;;;;;;;;26.00;94.70;;;;;;5042239;28;19913;-41
2022/10/02 08:54:43;;;;;;;;;;;26.00;94.60;;;;;;5042221;28;19940;-42
2022/10/02 08:57:12;;;;;;;;;;;25.90;94.60;;;;;;5042479;28;20185;-42
2022/10/02 08:59:51;;;;;;;;;;;26.00;94.60;;;;;;5041546;28;19923;-48
2022/10/02 09:02:36;;;;;;;;;;;26.00;94.60;;;;;;5041976;28;24076;-41
2022/10/02 09:05:20;;;;;;;;;;;26.00;94.60;;;;;;5042500;28;19913;-44
2022/10/02 09:07:49;;;;;;;;;;;25.90;94.50;;;;;;5042107;28;19912;-41
2022/10/02 09:10:30;;;;;;;;;;;25.90;94.50;;;;;;5042351;28;19916;-43
2022/10/02 09:13:26;;;;;;;;;;;25.90;94.50;;;;;;5042035;28;19912;-46
2022/10/02 09:16:07;;;;;;;;;;;25.90;94.50;;;;;;5042235;28;24094;-44
2022/10/02 09:18:42;;;;;;;;;;;26.00;94.50;;;;;;5041823;28;25085;-43
2022/10/02 09:21:16;;;;;;;;;;;25.90;94.50;;;;;;5041853;28;19909;-49
2022/10/02 09:23:42;;;;;;;;;;;25.90;94.50;;;;;;5041621;28;24075;-42
2022/10/02 09:26:08;;;;;;;;;;;25.90;94.40;;;;;;5040505;28;19909;-45
2022/10/02 09:28:34;;;;;;;;;;;25.90;94.50;;;;;;5041744;28;19901;-43
2022/10/02 09:31:17;;;;;;;;;;;25.90;94.40;;;;;;5041797;28;20212;-41
2022/10/02 09:34:02;;;;;;;;;;;25.90;94.40;;;;;;5041433;28;19942;-44
2022/10/02 09:36:44;;;;;;;;;;;25.90;94.40;;;;;;5041539;28;25076;-43
2022/10/02 09:39:23;;;;;;;;;;;25.90;94.40;;;;;;5041712;28;19909;-46
2022/10/02 09:42:08;;;;;;;;;;;25.90;94.40;;;;;;5041557;28;24076;-42
2022/10/02 09:44:57;;;;;;;;;;;25.90;94.40;;;;;;5041561;28;19909;-43
2022/10/02 09:47:26;;;;;;;;;;;25.90;94.40;;;;;;5041121;28;19932;-45
2022/10/02 09:49:56;;;;;;;;;;;25.90;94.40;;;;;;5041828;28;19912;-45
2022/10/02 09:52:37;;;;;;;;;;;25.90;94.40;;;;;;5041816;28;19903;-44
2022/10/02 09:55:12;;;;;;;;;;;25.90;94.40;;;;;;5041735;28;19973;-43
2022/10/02 09:57:47;;;;;;;;;;;25.90;94.30;;;;;;5041254;28;24077;-48
2022/10/02 10:00:40;;;;;;;;;;;25.90;94.30;;;;;;5041537;28;19909;-43
2022/10/02 10:03:24;;;;;;;;;;;25.90;94.30;;;;;;5041255;28;24093;-42
2022/10/02 10:05:53;;;;;;;;;;;25.90;94.30;;;;;;5041611;28;19909;-46
2022/10/02 10:08:38;;;;;;;;;;;25.90;94.30;;;;;;5041282;28;19905;-49
2022/10/02 10:11:19;;;;;;;;;;;25.90;94.20;;;;;;5041073;28;20196;-47
2022/10/02 10:13:54;;;;;;;;;;;25.90;94.30;;;;;;5041072;28;19963;-45
2022/10/02 10:16:40;;;;;;;;;;;25.80;94.20;;;;;;5041107;28;19952;-45
2022/10/02 10:19:24;;;;;;;;;;;25.80;94.20;;;;;;5041061;28;24076;-43
2022/10/02 10:22:04;;;;;;;;;;;25.80;94.20;;;;;;5040953;28;24085;-42
2022/10/02 10:24:48;;;;;;;;;;;25.80;94.20;;;;;;5041331;28;20066;-44
2022/10/02 10:27:33;;;;;;;;;;;25.80;94.30;;;;;;5040824;28;25095;-47
2022/10/02 10:29:59;;;;;;;;;;;25.80;94.30;;;;;;5041167;28;19916;-53
2022/10/02 10:32:34;;;;;;;;;;;25.80;94.30;;;;;;5040630;28;19905;-55
2022/10/02 10:35:07;;;;;;;;;;;25.80;94.30;;;;;;5039709;28;20094;-45
2022/10/02 10:40:38;;;;;;;;;;;25.80;94.30;;;;;;5041077;28;24080;-48
2022/10/02 10:43:23;;;;;;;;;;;25.80;94.30;;;;;;5040820;28;19912;-49
2022/10/02 10:45:49;;;;;;;;;;;25.80;94.40;;;;;;5041244;28;19949;-50
2022/10/02 10:48:33;;;;;;;;;;;25.80;94.40;;;;;;5040537;28;20092;-45
2022/10/02 10:51:18;;;;;;;;;;;25.80;94.40;;;;;;5040254;28;19976;-43
2022/10/02 10:54:07;;;;;;;;;;;25.80;94.40;;;;;;5040263;28;19911;-45
2022/10/02 10:56:45;;;;;;;;;;;25.70;94.40;;;;;;5040649;28;19909;-45
2022/10/02 10:59:29;;;;;;;;;;;25.70;94.40;;;;;;5040438;28;24079;-41
2022/10/02 11:01:55;;;;;;;;;;;25.70;94.50;;;;;;5038323;28;20190;-43
2022/10/02 11:04:24;;;;;;;;;;;25.80;94.70;;;;;;5029690;28;19910;-44
2022/10/02 11:07:08;;;;;;;;;;;25.70;94.50;;;;;;5020819;28;24077;-44
2022/10/02 11:09:46;;;;;;;;;;;25.80;94.50;;;;;;5020858;28;24073;-42
2022/10/02 11:12:29;;;;;;;;;;;25.70;94.50;;;;;;5020762;28;24088;-46
2022/10/02 11:15:18;;;;;;;;;;;25.80;94.50;;;;;;5142690;28;19958;-50
2022/10/02 11:17:50;;;;;;;;;;;25.80;94.60;;;;;;5106252;27;19903;-44
2022/10/02 11:20:35;;;;;;;;;;;25.70;94.60;;;;;;5145135;27;19908;-42
2022/10/02 11:23:07;;;;;;;;;;;25.80;94.60;;;;;;5146874;27;19970;-44
2022/10/02 11:25:34;;;;;;;;;;;25.70;94.60;;;;;;5148231;27;19971;-41
2022/10/02 11:28:13;;;;;;;;;;;25.80;94.70;;;;;;5069728;27;19912;-44
2022/10/02 11:30:57;;;;;;;;;;;25.70;94.70;;;;;;5042689;28;19944;-43
2022/10/02 11:33:37;;;;;;;;;;;25.70;94.70;;;;;;5043444;28;24073;-41
2022/10/02 11:36:18;;;;;;;;;;;25.70;94.70;;;;;;5043463;28;20201;-44
2022/10/02 11:38:54;;;;;;;;;;;25.70;94.80;;;;;;5051748;28;19976;-44
2022/10/02 11:41:28;;;;;;;;;;;25.80;94.80;;;;;;5075200;28;19903;-44
2022/10/02 11:44:12;;;;;;;;;;;25.70;94.80;;;;;;5071882;28;24102;-43
2022/10/02 11:46:57;;;;;;;;;;;25.80;94.80;;;;;;5042284;28;24118;-45
2022/10/02 11:49:26;;;;;;;;;;;25.80;94.80;;;;;;5065227;28;19909;-43
2022/10/02 11:51:52;;;;;;;;;;;25.80;94.90;;;;;;5059624;28;19912;-43
2022/10/02 11:54:25;;;;;;;;;;;25.80;94.90;;;;;;5042184;28;19916;-46
2022/10/02 11:57:00;;;;;;;;;;;25.80;94.90;;;;;;5042032;28;20037;-46
2022/10/02 11:59:27;;;;;;;;;;;25.80;95.00;;;;;;5042269;28;19913;-50
2022/10/02 12:02:07;;;;;;;;;;;25.80;95.00;;;;;;5042127;28;20212;-42
2022/10/02 12:04:33;;;;;;;;;;;25.80;95.00;;;;;;5042914;28;24079;-45
2022/10/02 12:07:21;;;;;;;;;;;25.80;95.10;;;;;;5043082;28;20097;-44
2022/10/02 12:09:59;;;;;;;;;;;25.80;95.10;;;;;;5023684;28;20272;-45
2022/10/02 12:12:40;;;;;;;;;;;25.80;95.10;;;;;;5023247;28;24074;-47
2022/10/02 12:15:20;;;;;;;;;;;25.80;95.20;;;;;;5034432;28;25063;-44
2022/10/02 12:17:52;;;;;;;;;;;25.90;95.20;;;;;;5023187;28;19944;-42
2022/10/02 12:29:05;;;;;;;;;;;25.90;95.30;;;;;;5035233;28;20283;-43
2022/10/02 12:31:50;;;;;;;;;;;25.90;95.30;;;;;;5053433;28;19912;-48
2022/10/02 12:34:16;;;;;;;;;;;25.90;95.20;;;;;;5034851;28;19909;-44
2022/10/02 12:36:42;;;;;;;;;;;25.90;95.20;;;;;;5054420;28;19909;-47
2022/10/02 12:39:29;;;;;;;;;;;25.90;95.20;;;;;;5038362;28;19917;-45
2022/10/02 12:41:58;;;;;;;;;;;26.00;95.10;;;;;;5034098;28;19920;-44
2022/10/02 12:44:43;;;;;;;;;;;26.00;94.90;;;;;;5024233;28;19916;-44
2022/10/02 12:47:28;;;;;;;;;;;26.00;94.90;;;;;;5062584;27;24095;-47
2022/10/02 12:49:57;;;;;;;;;;;26.00;94.80;;;;;;5047393;28;19912;-48
2022/10/02 12:52:33;;;;;;;;;;;26.10;94.80;;;;;;5042645;28;19913;-43
2022/10/02 12:55:05;;;;;;;;;;;26.00;94.60;;;;;;5043731;28;20093;-48
2022/10/02 12:57:51;;;;;;;;;;;26.10;94.60;;;;;;5038911;28;19905;-52
2022/10/02 13:00:18;;;;;;;;;;;26.10;94.70;;;;;;5036927;28;20203;-44
2022/10/02 13:03:07;;;;;;;;;;;26.10;94.60;;;;;;5040836;28;24072;-45
2022/10/02 13:05:39;;;;;;;;;;;26.10;94.60;;;;;;5070786;28;24124;-43
2022/10/02 13:08:23;;;;;;;;;;;26.10;94.70;;;;;;5061778;28;20242;-43
2022/10/02 13:11:02;;;;;;;;;;;26.10;94.60;;;;;;5071397;28;19921;-44
2022/10/02 13:13:47;;;;;;;;;;;26.10;94.70;;;;;;5071244;28;19905;-42
2022/10/02 13:16:20;;;;;;;;;;;26.10;94.80;;;;;;5043919;28;19919;-43
2022/10/02 13:18:58;;;;;;;;;;;26.20;94.50;;;;;;5051581;28;20131;-45
2022/10/02 13:21:34;;;;;;;;;;;26.20;94.60;;;;;;5053321;28;19904;-44
2022/10/02 13:24:06;;;;;;;;;;;26.20;94.40;;;;;;5065140;28;19909;-43
2022/10/02 13:26:32;;;;;;;;;;;26.10;94.30;;;;;;5063032;28;19944;-51
2022/10/02 13:29:08;;;;;;;;;;;26.20;94.20;;;;;;5053180;28;20185;-44
2022/10/02 13:32:07;;;;;;;;;;;26.20;94.20;;;;;;5039097;28;25083;-49
2022/10/02 13:34:52;;;;;;;;;;;26.20;94.00;;;;;;5016197;28;19959;-43
2022/10/02 13:37:36;;;;;;;;;;;26.20;94.00;;;;;;5050726;28;19905;-40
2022/10/02 13:40:17;;;;;;;;;;;26.10;94.10;;;;;;5029989;28;20004;-49
2022/10/02 13:43:03;;;;;;;;;;;26.20;94.00;;;;;;5046891;28;19905;-47
2022/10/02 13:45:36;;;;;;;;;;;26.20;94.00;;;;;;5071881;28;19972;-46
2022/10/02 13:48:28;;;;;;;;;;;26.20;94.10;;;;;;5066662;28;20152;-44
2022/10/02 13:51:05;;;;;;;;;;;26.20;94.00;;;;;;5049515;28;25086;-44
2022/10/02 13:53:36;;;;;;;;;;;26.20;94.30;;;;;;5055336;28;19912;-47
2022/10/02 13:56:06;;;;;;;;;;;26.20;94.40;;;;;;5054745;28;19920;-42
2022/10/02 13:58:49;;;;;;;;;;;26.30;94.80;;;;;;5061152;28;25120;-45
2022/10/02 14:01:16;;;;;;;;;;;26.30;94.80;;;;;;5053156;28;24077;-47
2022/10/02 14:03:42;;;;;;;;;;;26.30;94.50;;;;;;5040406;28;19917;-45
2022/10/02 14:06:14;;;;;;;;;;;26.30;94.30;;;;;;5041885;28;25065;-48
2022/10/02 14:08:49;;;;;;;;;;;26.30;94.40;;;;;;5023207;28;20350;-45
2022/10/02 14:11:22;;;;;;;;;;;26.40;94.30;;;;;;5044104;28;19911;-44
2022/10/02 14:13:58;;;;;;;;;;;26.30;94.30;;;;;;5034955;28;24100;-44
2022/10/02 14:16:49;;;;;;;;;;;26.40;93.90;;;;;;5036646;28;19909;-51
2022/10/02 14:19:40;;;;;;;;;;;26.30;93.80;;;;;;5026918;28;24086;-47
2022/10/02 14:22:06;;;;;;;;;;;26.40;93.80;;;;;;5048028;28;19961;-52
2022/10/02 14:25:00;;;;;;;;;;;26.40;94.00;;;;;;5059278;28;19995;-48
2022/10/02 14:27:44;;;;;;;;;;;26.40;94.00;;;;;;5049841;28;19909;-46
2022/10/02 14:30:18;;;;;;;;;;;26.40;93.80;;;;;;5039323;28;20201;-49
2022/10/02 14:32:47;;;;;;;;;;;26.40;93.70;;;;;;5045331;28;19905;-46
2022/10/02 14:35:21;;;;;;;;;;;26.50;93.50;;;;;;5040252;28;19963;-48
2022/10/02 14:38:00;;;;;;;;;;;26.50;93.20;;;;;;5059396;28;24083;-41
2022/10/02 14:40:39;;;;;;;;;;;26.50;93.30;;;;;;5042472;28;19909;-44
2022/10/02 14:43:11;;;;;;;;;;;26.50;93.50;;;;;;5021947;28;19909;-47
2022/10/02 14:45:59;;;;;;;;;;;26.50;93.40;;;;;;5023020;28;20105;-49
2022/10/02 14:48:34;;;;;;;;;;;26.50;93.20;;;;;;5029240;28;20138;-48
2022/10/02 14:51:04;;;;;;;;;;;26.50;93.50;;;;;;5045481;28;20089;-43
2022/10/02 14:53:36;;;;;;;;;;;26.50;93.50;;;;;;5060285;28;19909;-42
2022/10/02 14:56:26;;;;;;;;;;;26.50;93.50;;;;;;5060520;28;19916;-45
2022/10/02 14:59:09;;;;;;;;;;;26.60;93.40;;;;;;5066422;28;19912;-42
2022/10/02 15:01:49;;;;;;;;;;;26.60;93.20;;;;;;5050987;28;20026;-50
2022/10/02 15:04:24;;;;;;;;;;;26.60;93.20;;;;;;5044225;28;19909;-48
2022/10/02 15:06:59;;;;;;;;;;;26.60;93.20;;;;;;5040131;28;20018;-48
2022/10/02 15:09:48;;;;;;;;;;;26.60;93.40;;;;;;5043060;28;19909;-47
2022/10/02 15:12:19;;;;;;;;;;;26.60;92.90;;;;;;5040684;28;19936;-45
2022/10/02 15:14:57;;;;;;;;;;;26.60;92.50;;;;;;5043872;28;19919;-46